createdAt,value
2018-05-15T00:01:38.717Z,6.87
2018-05-15T00:04:07.466Z,6.20
2018-05-15T00:06:36.164Z,6.50
2018-05-15T00:09:05.215Z,6.60
2018-05-15T00:11:34.746Z,7.30
2018-05-15T00:14:03.669Z,7.33
2018-05-15T00:16:32.310Z,7.80
2018-05-15T00:19:01.135Z,8.23
2018-05-15T00:21:29.937Z,8.50
2018-05-15T00:23:58.801Z,9.90
2018-05-15T00:26:28.295Z,9.63
2018-05-15T00:28:57.054Z,10.83
2018-05-15T00:31:25.886Z,11.30
2018-05-15T00:33:54.720Z,10.80
2018-05-15T00:36:23.554Z,10.80
2018-05-15T00:38:53.173Z,11.20
2018-05-15T00:41:21.806Z,12.10
2018-05-15T00:43:50.445Z,12.80
2018-05-15T00:46:19.276Z,12.53
2018-05-15T00:48:48.837Z,13.23
2018-05-15T00:51:17.391Z,12.97
2018-05-15T00:53:46.085Z,12.80
2018-05-15T00:56:15.450Z,11.60
2018-05-15T00:58:44.142Z,11.80
2018-05-15T01:01:13.613Z,13.63
2018-05-15T01:03:42.484Z,13.60
2018-05-15T01:06:11.293Z,13.60
2018-05-15T01:08:39.809Z,12.70
2018-05-15T01:11:08.649Z,12.10
2018-05-15T01:13:37.413Z,11.57
2018-05-15T01:16:06.247Z,12.93
2018-05-15T01:18:34.954Z,13.23
2018-05-15T01:21:03.650Z,13.07
2018-05-15T01:23:32.349Z,12.00
2018-05-15T01:26:01.055Z,12.00
2018-05-15T01:28:29.685Z,10.50
2018-05-15T01:30:58.416Z,11.67
2018-05-15T01:33:27.659Z,10.17
2018-05-15T01:35:56.511Z,10.67
2018-05-15T01:38:25.341Z,10.40
2018-05-15T01:40:54.041Z,9.67
2018-05-15T01:43:22.775Z,10.50
2018-05-15T01:45:51.647Z,9.17
2018-05-15T01:48:21.185Z,9.23
2018-05-15T01:50:50.653Z,9.73
2018-05-15T01:53:19.448Z,9.10
2018-05-15T01:55:48.922Z,8.80
2018-05-15T01:58:17.774Z,9.97
2018-05-15T02:00:46.999Z,9.60
2018-05-15T02:03:15.736Z,9.03
2018-05-15T02:05:44.474Z,8.63
2018-05-15T02:08:13.421Z,9.80
2018-05-15T02:10:42.889Z,9.27
2018-05-15T02:13:11.484Z,10.33
2018-05-15T02:15:40.975Z,10.17
2018-05-15T02:18:09.791Z,9.83
2018-05-15T02:20:38.445Z,10.87
2018-05-15T02:23:07.149Z,11.97
2018-05-15T02:25:35.921Z,12.00
2018-05-15T02:28:04.610Z,12.80
2018-05-15T02:30:33.668Z,11.57
2018-05-15T02:33:02.319Z,11.73
2018-05-15T02:35:31.013Z,12.10
2018-05-15T02:37:59.877Z,11.30
2018-05-15T02:40:28.712Z,11.70
2018-05-15T02:42:57.463Z,10.83
2018-05-15T02:45:26.928Z,10.47
2018-05-15T02:47:55.770Z,11.53
2018-05-15T02:50:24.537Z,10.53
2018-05-15T02:52:53.184Z,10.87
2018-05-15T02:55:21.876Z,10.20
2018-05-15T02:57:50.734Z,10.33
2018-05-15T03:00:19.557Z,10.73
2018-05-15T03:02:48.323Z,9.80
2018-05-15T03:05:17.792Z,10.23
2018-05-15T03:07:46.653Z,10.63
2018-05-15T03:10:15.458Z,10.63
2018-05-15T03:12:44.321Z,9.47
2018-05-15T03:15:13.150Z,9.33
2018-05-15T03:17:41.982Z,9.93
2018-05-15T03:20:10.824Z,9.93
2018-05-15T03:22:40.311Z,10.37
2018-05-15T03:25:09.026Z,10.00
2018-05-15T03:27:37.625Z,10.13
2018-05-15T03:30:07.063Z,11.20
2018-05-15T03:32:35.730Z,10.63
2018-05-15T03:35:04.596Z,10.63
2018-05-15T03:37:33.428Z,11.13
2018-05-15T03:40:02.630Z,10.97
2018-05-15T03:42:31.398Z,11.27
2018-05-15T03:45:00.090Z,11.57
2018-05-15T03:47:28.955Z,12.30
2018-05-15T03:49:57.786Z,11.40
2018-05-15T03:52:26.790Z,11.73
2018-05-15T03:54:55.648Z,12.10
2018-05-15T03:57:24.376Z,11.63
2018-05-15T03:59:53.097Z,12.47
2018-05-15T04:02:39.446Z,11.37
2018-05-15T04:05:25.550Z,11.77
2018-05-15T04:08:15.815Z,10.47
2018-05-15T04:10:44.760Z,11.80
2018-05-15T04:13:13.424Z,10.93
2018-05-15T04:15:42.068Z,9.47
2018-05-15T04:18:11.484Z,9.40
2018-05-15T04:20:40.859Z,9.97
2018-05-15T04:23:09.624Z,9.93
2018-05-15T04:25:38.386Z,9.83
2018-05-15T04:28:07.819Z,9.53
2018-05-15T04:30:36.714Z,10.27
2018-05-15T04:33:06.312Z,9.30
2018-05-15T04:35:35.233Z,9.43
2018-05-15T04:38:03.924Z,9.70
2018-05-15T04:40:33.339Z,9.30
2018-05-15T04:43:02.806Z,9.03
2018-05-15T04:45:31.934Z,9.23
2018-05-15T04:48:00.663Z,8.97
2018-05-15T04:50:29.458Z,8.07
2018-05-15T04:52:58.924Z,8.43
2018-05-15T04:55:27.648Z,8.97
2018-05-15T04:57:56.533Z,7.47
2018-05-15T05:00:25.456Z,8.10
2018-05-15T05:02:54.153Z,7.87
2018-05-15T05:05:22.834Z,9.83
2018-05-15T05:07:51.557Z,10.50
2018-05-15T05:10:20.395Z,10.53
2018-05-15T05:12:49.228Z,12.43
2018-05-15T05:15:17.954Z,12.07
2018-05-15T05:17:46.888Z,12.93
2018-05-15T05:20:15.721Z,12.47
2018-05-15T05:22:44.419Z,12.87
2018-05-15T05:25:13.091Z,13.17
2018-05-15T05:27:41.829Z,11.40
2018-05-15T05:30:11.371Z,11.53
2018-05-15T05:32:40.835Z,11.83
2018-05-15T05:35:10.200Z,10.20
2018-05-15T05:37:38.891Z,10.57
2018-05-15T05:40:07.472Z,9.70
2018-05-15T05:42:36.960Z,10.33
2018-05-15T05:45:05.813Z,9.60
2018-05-15T05:47:34.510Z,9.53
2018-05-15T05:50:03.422Z,8.00
2018-05-15T05:52:32.279Z,8.70
2018-05-15T05:55:01.068Z,8.23
2018-05-15T05:57:30.484Z,7.57
2018-05-15T05:59:59.123Z,7.60
2018-05-15T06:02:28.624Z,7.90
2018-05-15T06:04:57.653Z,8.83
2018-05-15T06:07:26.513Z,7.67
2018-05-15T06:09:55.514Z,7.30
2018-05-15T06:12:24.347Z,7.20
2018-05-15T06:14:52.862Z,6.50
2018-05-15T06:17:21.580Z,7.10
2018-05-15T06:19:50.451Z,6.27
2018-05-15T06:22:19.286Z,7.30
2018-05-15T06:24:47.918Z,7.43
2018-05-15T06:27:16.752Z,7.20
2018-05-15T06:29:45.221Z,7.90
2018-05-15T06:32:13.772Z,8.87
2018-05-15T06:34:42.329Z,7.10
2018-05-15T06:37:11.001Z,8.73
2018-05-15T06:39:39.522Z,7.87
2018-05-15T06:42:08.369Z,7.40
2018-05-15T06:44:37.998Z,8.00
2018-05-15T06:47:06.628Z,7.53
2018-05-15T06:49:35.456Z,7.30
2018-05-15T06:52:05.084Z,7.20
2018-05-15T06:54:33.822Z,7.83
2018-05-15T06:57:03.144Z,8.30
2018-05-15T06:59:32.755Z,7.60
2018-05-15T07:02:01.592Z,7.57
2018-05-15T07:04:30.282Z,8.30
2018-05-15T07:06:59.053Z,8.13
2018-05-15T07:09:27.886Z,8.53
2018-05-15T07:11:56.521Z,8.67
2018-05-15T07:14:25.159Z,9.17
2018-05-15T07:16:53.926Z,9.27
2018-05-15T07:19:23.206Z,10.73
2018-05-15T07:21:51.760Z,10.30
2018-05-15T07:24:20.492Z,9.83
2018-05-15T07:26:49.577Z,8.80
2018-05-15T07:29:18.348Z,8.40
2018-05-15T07:31:47.181Z,9.60
2018-05-15T07:34:15.873Z,9.73
2018-05-15T07:36:44.651Z,10.13
2018-05-15T07:39:13.541Z,10.10
2018-05-15T07:41:42.229Z,9.10
2018-05-15T07:44:10.952Z,9.73
2018-05-15T07:46:39.784Z,10.77
2018-05-15T07:49:08.598Z,8.77
2018-05-15T07:51:37.252Z,12.37
2018-05-15T07:54:05.951Z,10.43
2018-05-15T07:56:34.600Z,9.10
2018-05-15T07:59:03.613Z,8.60
2018-05-15T08:01:32.384Z,9.00
2018-05-15T08:04:01.215Z,9.47
2018-05-15T08:06:30.043Z,8.53
2018-05-15T08:08:58.882Z,8.53
2018-05-15T08:11:27.603Z,9.00
2018-05-15T08:13:56.350Z,9.73
2018-05-15T08:16:25.243Z,9.57
2018-05-15T08:18:53.818Z,9.20
2018-05-15T08:21:22.658Z,9.30
2018-05-15T08:23:51.286Z,9.07
2018-05-15T08:26:19.760Z,8.03
2018-05-15T08:28:48.424Z,7.60
2018-05-15T08:31:17.689Z,7.50
2018-05-15T08:33:46.334Z,7.17
2018-05-15T08:36:15.055Z,7.00
2018-05-15T08:38:43.766Z,7.20
2018-05-15T08:41:12.522Z,6.40
2018-05-15T08:43:41.157Z,6.10
2018-05-15T08:46:09.855Z,7.40
2018-05-15T08:48:39.541Z,6.93
2018-05-15T08:51:09.977Z,6.67
2018-05-15T08:53:38.847Z,6.80
2018-05-15T08:56:07.679Z,5.83
2018-05-15T08:58:36.502Z,6.97
2018-05-15T09:01:05.345Z,7.47
2018-05-15T09:03:34.571Z,7.33
2018-05-15T09:06:03.309Z,7.83
2018-05-15T09:08:32.036Z,7.63
2018-05-15T09:11:00.869Z,7.93
2018-05-15T09:13:29.705Z,7.90
2018-05-15T09:15:59.198Z,6.83
2018-05-15T09:18:27.958Z,7.90
2018-05-15T09:20:56.790Z,7.57
2018-05-15T09:23:26.175Z,9.60
2018-05-15T09:25:55.042Z,9.37
2018-05-15T09:28:23.679Z,9.30
2018-05-15T09:30:52.510Z,9.57
2018-05-15T09:33:21.343Z,9.60
2018-05-15T09:35:50.435Z,8.70
2018-05-15T09:38:19.209Z,8.87
2018-05-15T09:40:48.743Z,9.10
2018-05-15T09:46:35.639Z,9.83
2018-05-15T09:49:04.472Z,10.53
2018-05-15T09:51:33.305Z,9.73
2018-05-15T09:54:02.140Z,9.80
2018-05-15T09:56:30.881Z,9.50
2018-05-15T09:58:59.610Z,10.47
2018-05-15T10:01:28.241Z,9.60
2018-05-15T10:03:56.989Z,8.07
2018-05-15T10:06:25.710Z,7.87
2018-05-15T10:08:54.546Z,7.90
2018-05-15T10:11:23.373Z,10.60
2018-05-15T10:13:52.123Z,8.77
2018-05-15T10:16:20.766Z,8.63
2018-05-15T10:18:50.238Z,9.17
2018-05-15T10:21:19.096Z,10.00
2018-05-15T10:23:47.807Z,9.30
2018-05-15T10:26:16.565Z,8.43
2018-05-15T10:28:45.401Z,9.73
2018-05-15T10:31:14.097Z,8.73
2018-05-15T10:33:42.835Z,10.37
2018-05-15T10:36:11.603Z,10.60
2018-05-15T10:38:40.246Z,9.70
2018-05-15T10:41:08.831Z,9.10
2018-05-15T10:43:37.480Z,9.43
2018-05-15T10:46:06.302Z,7.43
2018-05-15T10:48:35.072Z,8.70
2018-05-15T10:51:03.906Z,8.70
2018-05-15T10:53:32.737Z,7.97
2018-05-15T10:56:01.570Z,9.30
2018-05-15T10:58:30.359Z,13.70
2018-05-15T11:00:59.153Z,10.33
2018-05-15T11:03:27.845Z,8.27
2018-05-15T11:05:56.708Z,10.10
2018-05-15T11:08:26.321Z,8.60
2018-05-15T11:10:55.242Z,7.87
2018-05-15T11:13:23.961Z,8.57
2018-05-15T11:15:52.819Z,9.80
2018-05-15T11:18:48.197Z,8.20
2018-05-15T11:21:34.533Z,8.17
2018-05-15T11:27:10.495Z,8.67
2018-05-15T11:29:39.367Z,8.47
2018-05-15T11:32:08.192Z,7.73
2018-05-15T11:34:37.027Z,8.70
2018-05-15T11:37:05.978Z,8.00
2018-05-15T11:39:35.587Z,6.53
2018-05-15T11:42:04.507Z,9.67
2018-05-15T11:44:34.123Z,7.03
2018-05-15T11:47:02.963Z,7.07
2018-05-15T11:49:32.568Z,7.50
2018-05-15T11:52:01.531Z,6.97
2018-05-15T11:54:29.999Z,7.60
2018-05-15T11:56:58.564Z,7.77
2018-05-15T11:59:27.280Z,7.27
2018-05-15T12:01:55.954Z,7.77
2018-05-15T12:04:24.596Z,6.87
2018-05-15T12:06:53.418Z,7.67
2018-05-15T12:09:22.250Z,8.47
2018-05-15T12:11:51.142Z,8.50
2018-05-15T12:14:19.914Z,8.50
2018-05-15T12:16:48.749Z,7.80
2018-05-15T12:19:17.442Z,8.53
2018-05-15T12:21:46.220Z,7.80
2018-05-15T12:24:15.028Z,7.57
2018-05-15T12:26:43.597Z,8.73
2018-05-15T12:29:12.286Z,12.70
2018-05-15T12:31:41.151Z,10.07
2018-05-15T12:34:09.985Z,10.70
2018-05-15T12:36:38.702Z,10.73
2018-05-15T12:39:07.451Z,10.10
2018-05-15T12:41:36.412Z,9.20
2018-05-15T12:44:05.122Z,8.93
2018-05-15T12:46:33.948Z,9.10
2018-05-15T12:49:02.594Z,8.57
2018-05-15T12:51:31.395Z,8.30
2018-05-15T12:54:00.259Z,8.70
2018-05-15T12:56:29.075Z,8.87
2018-05-15T12:58:57.915Z,8.27
2018-05-15T13:01:26.541Z,9.33
2018-05-15T13:03:55.382Z,8.47
2018-05-15T13:06:23.924Z,8.80
2018-05-15T13:08:52.613Z,8.47
2018-05-15T13:11:21.494Z,10.00
2018-05-15T13:13:50.319Z,9.33
2018-05-15T13:16:19.063Z,8.93
2018-05-15T13:18:47.706Z,9.40
2018-05-15T13:21:17.210Z,10.27
2018-05-15T13:23:46.037Z,9.03
2018-05-15T13:26:14.834Z,9.57
2018-05-15T13:28:43.512Z,10.37
2018-05-15T13:31:13.045Z,10.67
2018-05-15T13:33:41.626Z,9.83
2018-05-15T13:36:10.404Z,10.13
2018-05-15T13:38:38.903Z,12.70
2018-05-15T13:41:07.695Z,10.20
2018-05-15T13:43:36.428Z,8.60
2018-05-15T13:46:06.341Z,8.57
2018-05-15T13:48:35.018Z,9.17
2018-05-15T13:51:03.527Z,8.40
2018-05-15T13:53:33.209Z,10.70
2018-05-15T13:56:02.041Z,8.17
2018-05-15T13:58:30.873Z,9.00
2018-05-15T14:01:00.055Z,7.90
2018-05-15T14:03:28.740Z,8.33
2018-05-15T14:05:57.566Z,9.43
2018-05-15T14:08:26.272Z,9.47
2018-05-15T14:10:55.034Z,10.53
2018-05-15T14:13:23.867Z,10.37
2018-05-15T14:15:52.700Z,9.20
2018-05-15T14:18:21.397Z,10.30
2018-05-15T14:20:50.572Z,9.77
2018-05-15T14:23:19.722Z,10.47
2018-05-15T14:25:49.172Z,9.93
2018-05-15T14:28:18.041Z,9.97
2018-05-15T14:30:46.874Z,10.70
2018-05-15T14:33:15.395Z,9.93
2018-05-15T14:35:43.921Z,10.77
2018-05-15T14:38:12.780Z,9.30
2018-05-15T14:40:41.346Z,9.80
2018-05-15T14:43:31.877Z,10.73
2018-05-15T14:46:00.710Z,9.20
2018-05-15T14:48:29.540Z,10.03
2018-05-15T14:51:28.066Z,10.33
2018-05-15T14:53:57.094Z,10.43
2018-05-15T14:56:25.923Z,12.23
2018-05-15T14:58:54.557Z,13.20
2018-05-15T15:01:23.392Z,14.40
2018-05-15T15:03:52.031Z,11.20
2018-05-15T15:06:20.721Z,12.70
2018-05-15T15:08:49.401Z,12.10
2018-05-15T15:11:18.129Z,12.63
2018-05-15T15:13:46.917Z,10.97
2018-05-15T15:16:15.486Z,11.70
2018-05-15T15:18:44.005Z,11.63
2018-05-15T15:21:12.842Z,10.83
2018-05-15T15:23:41.831Z,10.63
2018-05-15T15:26:10.509Z,9.57
2018-05-15T15:28:39.365Z,9.93
2018-05-15T15:31:08.984Z,8.90
2018-05-15T15:33:38.610Z,10.57
2018-05-15T15:36:07.305Z,10.40
2018-05-15T15:38:36.333Z,9.33
2018-05-15T15:41:05.886Z,10.00
2018-05-15T15:43:34.923Z,11.20
2018-05-15T15:46:03.514Z,10.63
2018-05-15T15:48:32.383Z,11.20
2018-05-15T15:51:01.215Z,9.27
2018-05-15T15:53:29.854Z,10.90
2018-05-15T15:55:58.718Z,9.90
2018-05-15T15:58:27.517Z,11.40
2018-05-15T16:00:57.047Z,11.13
2018-05-15T16:03:25.578Z,11.10
2018-05-15T16:05:54.415Z,9.67
2018-05-15T16:08:22.882Z,10.17
2018-05-15T16:10:51.482Z,11.50
2018-05-15T16:13:20.581Z,9.43
2018-05-15T16:15:49.344Z,10.90
2018-05-15T16:18:18.174Z,9.90
2018-05-15T16:20:46.930Z,10.77
2018-05-15T16:23:16.693Z,9.73
2018-05-15T16:25:45.466Z,10.77
2018-05-15T16:28:14.205Z,10.57
2018-05-15T16:30:42.731Z,10.37
2018-05-15T16:33:13.341Z,11.23
2018-05-15T16:35:41.939Z,11.03
2018-05-15T16:38:10.603Z,13.20
2018-05-15T16:40:39.312Z,10.50
2018-05-15T16:43:08.036Z,10.60
2018-05-15T16:45:37.199Z,10.87
2018-05-15T16:48:05.897Z,11.03
2018-05-15T16:50:34.770Z,11.17
2018-05-15T16:53:03.461Z,12.53
2018-05-15T16:55:32.228Z,12.00
2018-05-15T16:58:00.939Z,13.47
2018-05-15T17:00:29.680Z,12.80
2018-05-15T17:02:58.246Z,13.00
2018-05-15T17:05:27.289Z,13.67
2018-05-15T17:07:56.800Z,14.13
2018-05-15T17:10:25.618Z,12.47
2018-05-15T17:12:54.451Z,13.17
2018-05-15T17:15:23.208Z,13.57
2018-05-15T17:17:52.707Z,13.67
2018-05-15T17:20:21.537Z,14.70
2018-05-15T17:22:50.269Z,13.73
2018-05-15T17:25:18.782Z,14.20
2018-05-15T17:27:47.419Z,14.77
2018-05-15T17:30:16.187Z,14.63
2018-05-15T17:32:46.380Z,15.63
2018-05-15T17:35:15.094Z,17.87
2018-05-15T17:37:43.825Z,16.37
2018-05-15T17:40:12.510Z,16.67
2018-05-15T17:42:41.922Z,16.30
2018-05-15T17:45:10.613Z,17.20
2018-05-15T17:47:39.356Z,17.00
2018-05-15T17:50:08.079Z,16.90
2018-05-15T17:52:36.759Z,18.23
2018-05-15T17:55:05.559Z,15.30
2018-05-15T17:57:34.378Z,16.23
2018-05-15T18:00:04.577Z,15.27
2018-05-15T18:02:33.458Z,15.50
2018-05-15T18:05:03.078Z,14.30
2018-05-15T18:07:31.909Z,14.20
2018-05-15T18:10:01.189Z,13.90
2018-05-15T18:12:30.117Z,14.47
2018-05-15T18:14:58.921Z,12.80
2018-05-15T18:17:28.347Z,14.00
2018-05-15T18:19:58.278Z,12.90
2018-05-15T18:22:26.996Z,13.87
2018-05-15T18:24:56.365Z,14.43
2018-05-15T18:27:25.179Z,12.00
2018-05-15T18:29:53.877Z,12.30
2018-05-15T18:32:23.374Z,12.57
2018-05-15T18:34:52.082Z,11.10
2018-05-15T18:37:20.717Z,10.87
2018-05-15T18:39:49.396Z,10.97
2018-05-15T18:42:18.136Z,10.53
2018-05-15T18:44:46.680Z,10.77
2018-05-15T18:47:17.155Z,11.73
2018-05-15T18:49:46.363Z,11.80
2018-05-15T18:52:15.213Z,11.17
2018-05-15T18:54:44.469Z,10.73
2018-05-15T18:57:13.138Z,10.70
2018-05-15T18:59:41.661Z,11.20
2018-05-15T19:02:10.551Z,11.43
2018-05-15T19:04:39.488Z,11.37
2018-05-15T19:07:08.180Z,8.57
2018-05-15T19:09:37.042Z,9.60
2018-05-15T19:12:05.675Z,9.43
2018-05-15T19:14:34.393Z,8.93
2018-05-15T19:17:03.929Z,9.97
2018-05-15T19:19:32.728Z,9.77
2018-05-15T19:22:02.110Z,10.40
2018-05-15T19:24:31.575Z,10.83
2018-05-15T19:27:01.109Z,10.20
2018-05-15T19:29:30.060Z,9.23
2018-05-15T19:34:59.435Z,9.33
2018-05-15T19:37:28.139Z,9.40
2018-05-15T19:39:57.801Z,10.13
2018-05-15T19:42:26.620Z,9.17
2018-05-15T19:44:55.570Z,9.53
2018-05-15T19:47:24.245Z,9.00
2018-05-15T19:49:53.735Z,8.90
2018-05-15T19:52:22.501Z,8.57
2018-05-15T19:54:52.504Z,9.17
2018-05-15T19:57:21.393Z,8.47
2018-05-15T19:59:50.256Z,9.23
2018-05-15T20:02:19.021Z,8.63
2018-05-15T20:04:48.490Z,9.40
2018-05-15T20:07:17.341Z,9.53
2018-05-15T20:09:46.962Z,9.10
2018-05-15T20:12:15.672Z,9.13
2018-05-15T20:14:44.362Z,8.40
2018-05-15T20:17:13.772Z,8.40
2018-05-15T20:19:43.777Z,8.93
2018-05-15T20:22:12.505Z,8.90
2018-05-15T20:24:41.331Z,8.63
2018-05-15T20:27:10.162Z,9.27
2018-05-15T20:29:38.863Z,9.13
2018-05-15T20:32:07.555Z,8.70
2018-05-15T20:34:37.054Z,8.40
2018-05-15T20:37:06.385Z,8.07
2018-05-15T20:39:35.028Z,7.70
2018-05-15T20:42:03.958Z,7.60
2018-05-15T20:44:32.975Z,7.67
2018-05-15T20:47:01.804Z,7.60
2018-05-15T20:49:30.521Z,7.63
2018-05-15T20:51:59.142Z,7.43
2018-05-15T20:54:28.105Z,7.43
2018-05-15T20:56:57.626Z,7.30
2018-05-15T20:59:26.314Z,7.33
2018-05-15T21:01:55.158Z,7.30
2018-05-15T21:04:24.026Z,7.10
2018-05-15T21:06:52.856Z,7.03
2018-05-15T21:09:21.459Z,6.60
2018-05-15T21:11:50.256Z,6.53
2018-05-15T21:14:19.943Z,6.70
2018-05-15T21:16:49.535Z,6.40
2018-05-15T21:19:18.400Z,6.37
2018-05-15T21:21:47.926Z,6.40
2018-05-15T21:24:17.436Z,6.30
2018-05-15T21:26:46.070Z,6.37
2018-05-15T21:29:14.904Z,6.10
2018-05-15T21:31:44.513Z,5.73
2018-05-15T21:34:13.353Z,6.00
2018-05-15T21:36:42.065Z,5.83
2018-05-15T21:39:10.739Z,5.80
2018-05-15T21:41:40.306Z,5.40
2018-05-15T21:44:09.076Z,5.80
2018-05-15T21:46:37.816Z,5.17
2018-05-15T21:49:06.556Z,5.40
2018-05-15T21:51:36.060Z,5.63
2018-05-15T21:54:04.799Z,5.70
2018-05-15T21:56:33.636Z,5.20
2018-05-15T21:59:02.346Z,5.43
2018-05-15T22:01:30.873Z,5.60
2018-05-15T22:03:59.735Z,5.07
2018-05-15T22:06:28.385Z,4.60
2018-05-15T22:08:58.003Z,5.40
2018-05-15T22:11:25.764Z,5.63
2018-05-15T22:14:12.955Z,5.10
2018-05-15T22:16:59.395Z,5.30
2018-05-15T22:19:45.739Z,5.17
2018-05-15T22:22:15.236Z,4.70
2018-05-15T22:24:44.724Z,4.90
2018-05-15T22:27:13.413Z,5.03
2018-05-15T22:29:42.831Z,5.17
2018-05-15T22:32:12.545Z,5.33
2018-05-15T22:34:42.158Z,5.17
2018-05-15T22:37:10.890Z,4.90
2018-05-15T22:39:39.582Z,4.93
2018-05-15T22:42:08.253Z,5.40
2018-05-15T22:44:36.957Z,5.40
2018-05-15T22:47:05.663Z,5.10
2018-05-15T22:49:34.554Z,5.10
2018-05-15T22:52:03.386Z,5.10
2018-05-15T22:54:32.081Z,5.73
2018-05-15T22:57:01.444Z,4.63
2018-05-15T22:59:30.279Z,4.80
2018-05-15T23:01:59.895Z,5.13
2018-05-15T23:04:29.594Z,5.00
2018-05-15T23:06:58.050Z,5.60
2018-05-15T23:09:27.479Z,5.23
2018-05-15T23:11:56.408Z,5.33
2018-05-15T23:14:25.131Z,5.10
2018-05-15T23:16:53.782Z,5.03
2018-05-15T23:19:22.705Z,5.33
2018-05-15T23:21:51.602Z,5.23
2018-05-15T23:24:20.287Z,6.00
2018-05-15T23:26:49.175Z,5.33
2018-05-15T23:29:18.053Z,5.17
2018-05-15T23:31:46.861Z,5.83
2018-05-15T23:34:15.676Z,5.03
2018-05-15T23:36:44.505Z,5.57
2018-05-15T23:39:13.167Z,6.00
2018-05-15T23:41:42.002Z,5.40
2018-05-15T23:44:10.831Z,5.53
2018-05-15T23:46:40.455Z,5.40
2018-05-15T23:49:09.282Z,5.43
2018-05-15T23:51:38.902Z,5.47
2018-05-15T23:54:07.734Z,5.30
2018-05-15T23:56:37.220Z,5.33
2018-05-15T23:59:05.988Z,5.90
